Time;durP1;ratioP1;P1;durP2;ratioP2;P2;SDS_P1;SDS_P2;PMS_P1;PMS_P2;Temp;Humidity;BMP_temperature;BMP_pressure;BME280_temperature;BME280_humidity;BME280_pressure;Samples;Min_cycle;Max_cycle;Signal;HPM_P1;HPM_P2
2022/03/08 00:00:46;;;;;;;20.23;10.73;;;6.60;84.00;;;;;;5043910;28;20205;-79
2022/03/08 00:03:14;;;;;;;21.47;11.57;;;6.60;84.10;;;;;;5044457;28;20221;-78
2022/03/08 00:05:43;;;;;;;25.47;12.47;;;6.60;84.10;;;;;;5045202;28;20232;-79
2022/03/08 00:08:12;;;;;;;24.47;12.83;;;6.60;84.20;;;;;;5045601;28;20199;-78
2022/03/08 00:10:40;;;;;;;19.80;10.87;;;6.60;84.10;;;;;;5046404;28;21152;-79
2022/03/08 00:13:09;;;;;;;25.43;12.83;;;6.60;84.10;;;;;;5044785;28;20199;-79
2022/03/08 00:15:37;;;;;;;24.63;12.33;;;6.60;84.10;;;;;;5045730;28;20621;-78
2022/03/08 00:18:07;;;;;;;22.40;11.40;;;6.60;84.10;;;;;;5043465;28;20730;-79
2022/03/08 00:20:36;;;;;;;22.17;11.67;;;6.60;84.40;;;;;;5044955;28;20203;-78
2022/03/08 00:23:04;;;;;;;20.43;11.67;;;6.70;84.30;;;;;;5042799;28;20202;-79
2022/03/08 00:25:32;;;;;;;20.00;11.90;;;6.60;84.20;;;;;;5041935;28;20202;-78
2022/03/08 00:28:00;;;;;;;23.13;11.20;;;6.70;84.20;;;;;;5044670;28;20277;-78
2022/03/08 00:30:29;;;;;;;19.67;11.73;;;6.60;84.10;;;;;;5045036;28;20965;-78
2022/03/08 00:32:58;;;;;;;21.50;11.33;;;6.60;84.10;;;;;;5043696;28;20191;-79
2022/03/08 00:35:28;;;;;;;21.27;11.27;;;6.60;84.10;;;;;;5044777;28;20227;-78
2022/03/08 00:37:59;;;;;;;21.23;10.30;;;6.70;84.20;;;;;;5044720;28;20221;-79
2022/03/08 00:40:27;;;;;;;20.17;11.07;;;6.60;84.10;;;;;;5045602;28;20509;-79
2022/03/08 00:42:56;;;;;;;19.57;10.80;;;6.70;84.10;;;;;;5042810;28;20219;-79
2022/03/08 00:45:24;;;;;;;19.43;11.40;;;6.70;84.10;;;;;;5044907;28;20206;-79
2022/03/08 00:47:52;;;;;;;20.87;11.07;;;6.70;84.10;;;;;;5045182;28;20205;-79
2022/03/08 00:50:23;;;;;;;17.00;9.90;;;6.70;84.00;;;;;;5045102;28;20203;-78
2022/03/08 00:52:54;;;;;;;19.50;11.17;;;6.70;83.90;;;;;;5047197;28;20198;-79
2022/03/08 00:55:24;;;;;;;18.97;9.90;;;6.70;83.90;;;;;;5049607;28;20202;-78
2022/03/08 00:57:53;;;;;;;20.40;10.10;;;6.70;83.80;;;;;;5051770;28;20190;-78
2022/03/08 01:00:23;;;;;;;18.57;9.87;;;6.70;83.80;;;;;;5047026;28;20714;-78
2022/03/08 01:02:52;;;;;;;20.50;11.30;;;6.70;83.80;;;;;;5051187;28;20812;-78
2022/03/08 01:05:21;;;;;;;22.33;11.40;;;6.70;83.70;;;;;;5051185;28;20190;-78
2022/03/08 01:07:49;;;;;;;18.27;9.77;;;6.70;83.60;;;;;;5049340;28;20203;-78
2022/03/08 01:10:22;;;;;;;22.37;11.03;;;6.70;83.70;;;;;;5049602;28;20214;-79
2022/03/08 01:12:51;;;;;;;18.73;10.13;;;6.70;83.50;;;;;;5045942;28;20195;-79
2022/03/08 01:15:21;;;;;;;20.07;10.20;;;6.80;83.90;;;;;;5044438;28;20210;-78
2022/03/08 01:17:49;;;;;;;18.40;10.87;;;6.70;84.10;;;;;;5047757;28;20203;-79
2022/03/08 01:20:17;;;;;;;16.20;9.63;;;6.60;83.20;;;;;;5044751;28;20301;-78
2022/03/08 01:22:46;;;;;;;18.00;10.33;;;6.60;82.70;;;;;;5046972;28;20496;-78
2022/03/08 01:25:17;;;;;;;16.63;9.77;;;6.60;82.60;;;;;;5049476;28;20203;-78
2022/03/08 01:27:47;;;;;;;15.53;10.20;;;6.50;82.20;;;;;;5045465;28;20746;-80
2022/03/08 01:30:20;;;;;;;16.90;9.73;;;6.40;81.30;;;;;;5052420;28;20713;-78
2022/03/08 01:32:48;;;;;;;18.97;10.17;;;6.40;81.30;;;;;;5050138;28;20235;-78
2022/03/08 01:35:18;;;;;;;17.57;10.23;;;6.30;81.20;;;;;;5046309;28;20214;-76
2022/03/08 01:37:48;;;;;;;19.23;9.93;;;6.30;81.30;;;;;;5045675;28;20259;-78
2022/03/08 01:40:17;;;;;;;17.37;9.87;;;6.30;81.10;;;;;;5043690;28;20225;-77
2022/03/08 01:42:49;;;;;;;16.57;9.73;;;6.20;81.10;;;;;;5046812;28;20665;-77
2022/03/08 01:45:26;;;;;;;15.70;9.23;;;6.20;81.30;;;;;;5010524;28;20209;-78
2022/03/08 01:47:55;;;;;;;15.97;10.13;;;6.10;81.30;;;;;;5047869;28;20198;-78
2022/03/08 01:50:25;;;;;;;17.57;10.50;;;6.00;81.20;;;;;;5045766;28;20183;-78
2022/03/08 01:52:58;;;;;;;16.25;10.40;;;6.00;81.20;;;;;;5013969;28;20429;-78
2022/03/08 01:55:26;;;;;;;17.90;10.60;;;6.00;81.40;;;;;;5051591;28;20262;-78
2022/03/08 01:57:56;;;;;;;19.93;10.50;;;5.80;81.50;;;;;;5048967;28;20206;-78
2022/03/08 02:00:29;;;;;;;16.00;9.80;;;5.90;81.70;;;;;;5045987;28;20683;-79
2022/03/08 02:03:02;;;;;;;17.63;10.00;;;5.80;81.60;;;;;;5045203;28;20453;-78
2022/03/08 02:05:31;;;;;;;15.07;9.43;;;5.80;81.60;;;;;;5048669;28;20201;-78
2022/03/08 02:08:09;;;;;;;20.20;10.53;;;5.80;81.50;;;;;;5045989;28;20198;-79
2022/03/08 02:10:37;;;;;;;18.33;9.87;;;5.70;81.50;;;;;;5045318;28;20653;-78
2022/03/08 02:13:09;;;;;;;17.20;10.10;;;5.80;81.70;;;;;;5043990;28;20663;-78
2022/03/08 02:15:38;;;;;;;17.77;10.23;;;5.70;82.00;;;;;;5044080;28;20208;-78
2022/03/08 02:18:10;;;;;;;17.47;10.27;;;5.70;81.60;;;;;;5043648;28;20213;-78
2022/03/08 02:20:38;;;;;;;18.53;10.73;;;5.70;81.90;;;;;;5046202;28;20218;-77
2022/03/08 02:23:11;;;;;;;20.23;10.23;;;5.60;82.10;;;;;;5044810;28;21149;-77
2022/03/08 02:25:42;;;;;;;17.67;10.30;;;5.60;81.70;;;;;;5046442;28;20195;-78
2022/03/08 02:28:10;;;;;;;18.20;10.37;;;5.60;81.40;;;;;;5043285;28;20206;-77
2022/03/08 02:30:39;;;;;;;17.47;10.03;;;5.60;81.30;;;;;;5045070;28;20199;-78
2022/03/08 02:33:09;;;;;;;18.07;10.20;;;5.60;81.30;;;;;;5045607;28;20291;-78
2022/03/08 02:35:37;;;;;;;16.10;9.43;;;5.60;81.30;;;;;;5045112;28;20202;-78
2022/03/08 02:38:07;;;;;;;19.40;11.07;;;5.50;80.80;;;;;;5043999;28;20194;-78
2022/03/08 02:40:39;;;;;;;18.07;10.43;;;5.50;80.80;;;;;;5044343;28;20602;-77
2022/03/08 02:43:08;;;;;;;18.33;10.03;;;5.40;80.50;;;;;;5043380;28;20194;-78
2022/03/08 02:45:37;;;;;;;19.63;10.40;;;5.40;80.50;;;;;;5044836;28;20240;-77
2022/03/08 02:48:06;;;;;;;18.30;10.93;;;5.40;80.70;;;;;;5045422;28;20209;-77
2022/03/08 02:50:35;;;;;;;20.83;11.67;;;5.40;80.70;;;;;;5044753;28;20198;-78
2022/03/08 02:53:04;;;;;;;19.53;11.73;;;5.30;80.60;;;;;;5044477;28;20211;-76
2022/03/08 02:55:34;;;;;;;19.03;11.50;;;5.30;80.50;;;;;;5044911;28;20673;-77
2022/03/08 02:58:05;;;;;;;20.97;11.40;;;5.20;80.30;;;;;;5044502;28;20206;-78
2022/03/08 03:00:35;;;;;;;17.57;10.80;;;5.20;80.50;;;;;;5042725;28;20219;-78
2022/03/08 03:03:06;;;;;;;21.07;11.63;;;5.20;80.50;;;;;;5045068;28;20241;-78
2022/03/08 03:05:36;;;;;;;21.90;12.30;;;5.10;80.50;;;;;;5043773;28;20718;-78
2022/03/08 03:08:15;;;;;;;17.13;10.43;;;5.10;80.70;;;;;;5044617;28;20230;-78
2022/03/08 03:10:43;;;;;;;21.67;12.47;;;5.10;80.50;;;;;;5044453;28;20188;-79
2022/03/08 03:13:15;;;;;;;21.33;11.63;;;5.00;80.70;;;;;;5042038;28;20201;-78
2022/03/08 03:15:47;;;;;;;18.67;11.23;;;5.00;80.60;;;;;;5042421;28;20209;-77
2022/03/08 03:18:16;;;;;;;26.23;13.47;;;5.00;80.60;;;;;;5044788;28;20204;-78
2022/03/08 03:20:44;;;;;;;21.17;11.83;;;5.00;80.90;;;;;;5042483;28;20209;-78
2022/03/08 03:23:12;;;;;;;24.70;12.37;;;5.00;80.70;;;;;;5043159;28;20561;-78
2022/03/08 03:25:41;;;;;;;23.43;11.80;;;5.00;80.70;;;;;;5042889;28;20806;-79
2022/03/08 03:28:09;;;;;;;20.90;11.97;;;5.00;80.70;;;;;;5042467;28;20213;-78
2022/03/08 03:30:39;;;;;;;24.40;13.13;;;5.00;80.70;;;;;;5043232;28;20275;-78
2022/03/08 03:33:07;;;;;;;24.57;12.93;;;5.00;80.50;;;;;;5043032;28;20233;-78
2022/03/08 03:35:35;;;;;;;24.60;12.80;;;5.00;80.60;;;;;;5043301;28;20197;-78
2022/03/08 03:38:04;;;;;;;25.40;13.23;;;5.00;80.50;;;;;;5040609;28;20202;-78
2022/03/08 03:40:32;;;;;;;25.63;13.63;;;4.90;80.40;;;;;;5044995;28;20221;-78
2022/03/08 03:43:00;;;;;;;26.23;13.40;;;4.90;80.40;;;;;;5042191;28;20190;-78
2022/03/08 03:45:29;;;;;;;23.03;13.17;;;4.90;80.40;;;;;;5041898;28;20209;-77
2022/03/08 03:47:59;;;;;;;24.67;13.63;;;4.90;80.60;;;;;;5042248;28;20204;-79
2022/03/08 03:50:27;;;;;;;29.07;14.17;;;4.90;80.70;;;;;;5042782;28;20185;-78
2022/03/08 03:52:55;;;;;;;25.50;13.37;;;5.00;80.80;;;;;;5043465;28;20694;-78
2022/03/08 03:55:23;;;;;;;25.83;13.93;;;5.00;80.80;;;;;;5043970;28;20875;-78
2022/03/08 03:57:52;;;;;;;26.30;13.73;;;5.00;80.70;;;;;;5042113;28;20255;-78
2022/03/08 04:00:20;;;;;;;21.90;12.73;;;5.00;80.40;;;;;;5043718;28;20217;-79
2022/03/08 04:02:48;;;;;;;24.83;13.47;;;5.00;80.40;;;;;;5041439;28;20240;-78
2022/03/08 04:05:19;;;;;;;25.97;14.53;;;5.00;80.10;;;;;;5043846;28;20197;-79
2022/03/08 04:07:47;;;;;;;23.90;12.50;;;5.00;80.00;;;;;;5042695;28;20567;-79
2022/03/08 04:10:17;;;;;;;22.83;12.03;;;5.00;80.10;;;;;;5043670;28;20263;-78
2022/03/08 04:12:45;;;;;;;28.10;13.90;;;5.00;80.10;;;;;;5043228;28;20232;-78
2022/03/08 04:15:13;;;;;;;27.23;13.67;;;5.00;80.00;;;;;;5041746;28;20957;-78
2022/03/08 04:17:42;;;;;;;23.90;13.23;;;5.00;80.10;;;;;;5042323;28;20688;-78
2022/03/08 04:20:12;;;;;;;26.07;12.97;;;4.90;80.10;;;;;;5043892;28;21669;-78
2022/03/08 04:22:42;;;;;;;25.80;13.27;;;4.90;80.00;;;;;;5043246;28;20218;-78
2022/03/08 04:25:11;;;;;;;27.17;13.07;;;4.90;79.80;;;;;;5042054;28;20300;-77
2022/03/08 04:27:39;;;;;;;23.13;13.23;;;4.80;79.70;;;;;;5042201;28;20830;-77
2022/03/08 04:30:09;;;;;;;24.53;12.90;;;4.80;79.60;;;;;;5042624;28;20659;-77
2022/03/08 04:32:37;;;;;;;22.33;12.63;;;4.80;79.60;;;;;;5041207;28;20193;-78
2022/03/08 04:35:06;;;;;;;24.47;13.63;;;4.70;79.60;;;;;;5041733;28;20196;-77
2022/03/08 04:37:34;;;;;;;23.40;12.97;;;4.70;79.80;;;;;;5041583;28;20209;-77
2022/03/08 04:40:05;;;;;;;21.50;12.07;;;4.70;79.50;;;;;;5042607;28;20603;-77
2022/03/08 04:42:34;;;;;;;27.73;14.10;;;4.70;79.50;;;;;;5044606;28;20205;-78
2022/03/08 04:45:02;;;;;;;24.37;13.27;;;4.70;79.80;;;;;;5042246;28;20193;-78
2022/03/08 04:47:30;;;;;;;23.70;13.27;;;4.70;79.80;;;;;;5043189;28;20206;-77
2022/03/08 04:49:59;;;;;;;24.83;12.93;;;4.70;79.80;;;;;;5041259;28;20213;-78
2022/03/08 04:52:27;;;;;;;26.30;13.60;;;4.80;80.20;;;;;;5043152;28;20259;-77
2022/03/08 04:54:55;;;;;;;25.23;13.27;;;4.70;80.10;;;;;;5042196;28;20193;-78
2022/03/08 04:57:25;;;;;;;21.03;11.90;;;4.70;79.90;;;;;;5043065;28;20205;-79
2022/03/08 04:59:53;;;;;;;22.37;13.03;;;4.70;79.80;;;;;;5042760;28;20532;-78
2022/03/08 05:02:22;;;;;;;25.23;13.47;;;4.70;79.80;;;;;;5040374;28;20699;-78
2022/03/08 05:04:50;;;;;;;22.20;12.53;;;4.60;80.00;;;;;;5041989;28;20276;-79
2022/03/08 05:07:18;;;;;;;24.03;12.83;;;4.60;80.00;;;;;;5041294;28;20210;-77
2022/03/08 05:09:46;;;;;;;23.90;13.77;;;4.60;80.00;;;;;;5042299;28;20713;-77
2022/03/08 05:12:15;;;;;;;22.70;12.97;;;4.60;80.20;;;;;;5042427;28;20201;-78
2022/03/08 05:14:44;;;;;;;26.33;13.00;;;4.60;80.00;;;;;;5041561;28;20786;-79
2022/03/08 05:17:13;;;;;;;20.83;12.10;;;4.60;80.00;;;;;;5041792;28;20202;-78
2022/03/08 05:19:41;;;;;;;24.83;12.37;;;4.60;79.90;;;;;;5042191;28;20215;-78
2022/03/08 05:22:09;;;;;;;20.13;11.87;;;4.60;79.80;;;;;;5041457;28;20219;-78
2022/03/08 05:24:38;;;;;;;20.27;11.33;;;4.60;79.60;;;;;;5042341;28;20200;-78
2022/03/08 05:27:07;;;;;;;24.30;11.80;;;4.70;79.50;;;;;;5041422;28;21668;-79
2022/03/08 05:29:35;;;;;;;22.10;12.50;;;4.60;79.20;;;;;;5043087;28;20822;-79
2022/03/08 05:32:06;;;;;;;21.77;11.63;;;4.70;79.70;;;;;;5041508;28;20194;-79
2022/03/08 05:34:35;;;;;;;20.80;12.20;;;4.60;80.00;;;;;;5041343;28;20211;-78
2022/03/08 05:37:06;;;;;;;20.63;11.83;;;4.70;79.70;;;;;;5041574;28;20304;-79
2022/03/08 05:39:37;;;;;;;21.57;11.50;;;4.70;79.40;;;;;;5041070;28;20190;-79
2022/03/08 05:42:06;;;;;;;22.13;12.47;;;4.70;79.70;;;;;;5041834;28;20839;-78
2022/03/08 05:44:36;;;;;;;22.90;12.67;;;4.60;79.70;;;;;;5042157;28;20644;-79
2022/03/08 05:47:07;;;;;;;22.97;12.50;;;4.70;79.70;;;;;;5041905;28;20200;-79
2022/03/08 05:49:37;;;;;;;25.60;13.43;;;4.70;79.70;;;;;;5040683;28;20225;-78
2022/03/08 05:52:15;;;;;;;21.57;12.10;;;4.70;79.80;;;;;;5040515;28;20668;-80
2022/03/08 05:54:43;;;;;;;24.20;13.70;;;4.70;79.80;;;;;;5042470;28;20243;-78
2022/03/08 05:57:11;;;;;;;24.60;12.80;;;4.80;80.10;;;;;;5041473;28;20202;-79
2022/03/08 05:59:40;;;;;;;23.03;11.90;;;4.80;80.20;;;;;;5041577;28;20207;-79
2022/03/08 06:02:09;;;;;;;23.67;12.83;;;4.80;80.10;;;;;;5041834;28;20992;-79
2022/03/08 06:04:38;;;;;;;23.47;13.13;;;4.80;80.40;;;;;;5045758;28;20715;-79
2022/03/08 06:07:06;;;;;;;24.60;13.13;;;4.90;80.40;;;;;;5045868;28;20201;-79
2022/03/08 06:09:34;;;;;;;22.27;12.40;;;4.90;80.80;;;;;;5044828;28;20255;-78
2022/03/08 06:12:03;;;;;;;23.57;13.40;;;4.90;80.70;;;;;;5047015;28;20217;-78
2022/03/08 06:14:31;;;;;;;22.10;13.07;;;4.90;80.70;;;;;;5045011;28;20220;-79
2022/03/08 06:17:00;;;;;;;24.90;14.00;;;5.00;80.80;;;;;;5044249;28;20199;-79
2022/03/08 06:19:29;;;;;;;26.70;13.90;;;5.00;81.10;;;;;;5044403;28;20936;-80
2022/03/08 06:21:58;;;;;;;22.70;13.20;;;5.00;81.00;;;;;;5044592;28;20241;-81
2022/03/08 06:24:26;;;;;;;24.60;13.90;;;5.10;81.20;;;;;;5043938;28;20718;-78
2022/03/08 06:26:54;;;;;;;25.20;13.90;;;5.10;81.20;;;;;;5045475;28;20224;-77
2022/03/08 06:29:23;;;;;;;27.93;14.87;;;5.10;81.10;;;;;;5044210;28;20206;-79
2022/03/08 06:31:51;;;;;;;28.73;14.93;;;5.20;81.00;;;;;;5043113;28;20600;-80
2022/03/08 06:34:19;;;;;;;29.63;17.25;;;5.30;81.10;;;;;;5042851;28;20433;-79
2022/03/08 06:36:49;;;;;;;26.60;14.30;;;5.30;81.70;;;;;;5043947;28;20199;-80
2022/03/08 06:39:17;;;;;;;25.70;15.03;;;5.40;81.70;;;;;;5043644;28;20206;-78
2022/03/08 06:41:45;;;;;;;26.30;13.50;;;5.40;81.20;;;;;;5045749;28;20214;-79
2022/03/08 06:44:14;;;;;;;24.93;13.33;;;5.50;80.80;;;;;;5046455;28;20195;-79
2022/03/08 06:46:44;;;;;;;23.98;13.93;;;5.50;80.40;;;;;;5045916;28;20870;-79
2022/03/08 06:49:13;;;;;;;23.73;14.10;;;5.50;80.20;;;;;;5046358;28;20309;-78
2022/03/08 06:51:41;;;;;;;24.83;13.40;;;5.60;80.20;;;;;;5045284;28;20493;-80
2022/03/08 06:54:12;;;;;;;23.50;12.60;;;5.60;80.20;;;;;;5047074;28;20213;-80
2022/03/08 06:56:41;;;;;;;23.13;12.17;;;5.70;80.00;;;;;;5048161;28;20201;-79
2022/03/08 06:59:14;;;;;;;25.20;12.97;;;5.70;79.70;;;;;;5045350;28;20716;-80
2022/03/08 07:01:42;;;;;;;24.80;13.70;;;5.70;79.70;;;;;;5043848;28;20826;-79
2022/03/08 07:04:10;;;;;;;24.43;13.10;;;5.70;79.70;;;;;;5046337;28;20724;-79
2022/03/08 07:06:40;;;;;;;22.43;12.67;;;5.80;80.00;;;;;;5046987;28;20198;-78
2022/03/08 07:09:08;;;;;;;24.57;13.33;;;5.80;79.90;;;;;;5043694;28;20210;-79
2022/03/08 07:11:40;;;;;;;21.53;12.87;;;5.80;79.70;;;;;;5045317;28;20218;-78
2022/03/08 07:14:08;;;;;;;22.73;12.73;;;5.80;79.60;;;;;;5045817;28;20608;-79
2022/03/08 07:16:38;;;;;;;21.57;12.40;;;5.90;79.40;;;;;;5046702;28;20209;-83
2022/03/08 07:19:07;;;;;;;20.87;13.57;;;5.90;79.40;;;;;;5045981;28;21631;-80
2022/03/08 07:21:36;;;;;;;24.17;13.00;;;6.00;79.40;;;;;;5041462;28;20211;-81
2022/03/08 07:24:05;;;;;;;21.63;11.97;;;6.00;79.00;;;;;;5041613;28;20284;-79
2022/03/08 07:26:41;;;;;;;23.67;12.90;;;6.10;79.10;;;;;;5041246;28;20199;-81
2022/03/08 07:29:20;;;;;;;22.83;12.80;;;6.10;78.80;;;;;;5042252;28;20206;-80
2022/03/08 07:34:46;;;;;;;23.05;14.25;;;6.30;78.50;;;;;;4993220;28;20455;-80
2022/03/08 07:37:16;;;;;;;19.67;11.63;;;6.30;78.90;;;;;;5039662;28;20198;-80
2022/03/08 07:42:40;;;;;;;20.40;11.17;;;6.40;78.80;;;;;;5039615;28;20230;-80
2022/03/08 07:51:24;;;;;;;19.30;12.43;;;6.70;77.90;;;;;;5031406;28;20820;-81
2022/03/08 07:54:09;;;;;;;20.93;11.73;;;6.80;77.70;;;;;;5033311;28;20533;-81
2022/03/08 07:56:42;;;;;;;18.93;11.63;;;6.80;77.30;;;;;;5037942;28;20195;-81
2022/03/08 07:59:53;;;;;;;21.40;11.70;;;6.90;77.30;;;;;;5034539;28;20195;-79
2022/03/08 08:02:23;;;;;;;20.43;11.70;;;6.90;77.40;;;;;;5005632;28;20227;-79
2022/03/08 08:08:23;;;;;;;20.07;11.93;;;7.10;77.40;;;;;;5043405;28;20201;-80
2022/03/08 08:10:51;;;;;;;24.00;12.63;;;7.20;77.20;;;;;;5044193;28;20192;-80
2022/03/08 08:13:20;;;;;;;20.03;11.80;;;7.30;77.40;;;;;;5015487;28;20191;-80
2022/03/08 08:16:00;;;;;;;19.83;11.30;;;7.30;77.10;;;;;;5043537;28;20193;-81
2022/03/08 08:18:31;;;;;;;22.67;12.30;;;7.40;76.90;;;;;;5041574;28;20187;-80
2022/03/08 08:21:01;;;;;;;21.90;12.40;;;7.40;76.50;;;;;;5048016;28;20191;-79
2022/03/08 08:23:30;;;;;;;19.10;10.67;;;7.40;76.50;;;;;;5049432;28;20215;-79
2022/03/08 08:26:00;;;;;;;18.17;10.50;;;7.40;75.30;;;;;;5049243;28;20313;-79
2022/03/08 08:28:28;;;;;;;15.67;9.40;;;7.40;75.30;;;;;;5047511;28;20711;-81
2022/03/08 08:31:02;;;;;;;15.70;9.63;;;7.40;75.00;;;;;;5041542;28;20190;-81
2022/03/08 08:33:35;;;;;;;19.60;12.93;;;7.50;75.20;;;;;;5038687;28;20522;-79
2022/03/08 08:36:03;;;;;;;23.93;11.60;;;7.50;75.70;;;;;;5052594;28;20206;-79
2022/03/08 08:38:32;;;;;;;21.00;12.20;;;7.50;75.90;;;;;;5048195;28;20200;-80
2022/03/08 08:41:01;;;;;;;24.00;12.20;;;7.50;76.10;;;;;;5053771;28;20710;-78
2022/03/08 08:43:30;;;;;;;19.47;11.07;;;7.50;76.10;;;;;;5048647;28;20218;-76
2022/03/08 08:45:58;;;;;;;22.60;12.30;;;7.60;75.80;;;;;;5049984;28;20828;-76
2022/03/08 08:48:28;;;;;;;16.80;11.10;;;7.60;75.80;;;;;;5053624;28;20201;-78
2022/03/08 08:50:56;;;;;;;17.27;10.07;;;7.60;75.20;;;;;;5058035;28;20296;-80
2022/03/08 08:53:26;;;;;;;18.77;11.93;;;7.60;75.30;;;;;;5057580;28;20748;-79
2022/03/08 08:55:54;;;;;;;20.77;10.80;;;7.70;75.30;;;;;;5049798;28;20212;-80
2022/03/08 08:58:23;;;;;;;18.87;10.90;;;7.80;75.40;;;;;;5053851;28;20207;-79
2022/03/08 09:00:51;;;;;;;17.07;10.70;;;7.80;75.60;;;;;;5047605;28;20265;-79
2022/03/08 09:03:19;;;;;;;18.23;10.70;;;7.90;75.80;;;;;;5050326;28;20301;-80
2022/03/08 09:05:52;;;;;;;16.90;11.17;;;8.00;75.60;;;;;;5047832;28;20278;-79
2022/03/08 09:08:23;;;;;;;18.90;11.38;;;8.10;75.30;;;;;;5050029;28;20447;-80
2022/03/08 09:10:53;;;;;;;16.17;9.93;;;8.10;74.70;;;;;;5047041;28;20227;-79
2022/03/08 09:13:22;;;;;;;15.07;9.03;;;8.30;74.60;;;;;;5046701;28;21078;-78
2022/03/08 09:15:50;;;;;;;14.20;9.63;;;8.30;72.90;;;;;;5044390;28;20198;-80
2022/03/08 09:18:19;;;;;;;13.37;9.20;;;8.40;72.60;;;;;;5049606;28;20212;-76
2022/03/08 09:20:47;;;;;;;17.00;10.10;;;8.40;72.10;;;;;;5045773;28;20204;-75
2022/03/08 09:23:17;;;;;;;17.30;10.50;;;8.50;71.10;;;;;;5040953;28;20225;-77
2022/03/08 09:25:46;;;;;;;19.17;10.73;;;8.60;71.70;;;;;;5042077;28;20198;-78
2022/03/08 09:28:14;;;;;;;19.73;11.20;;;8.70;71.30;;;;;;5043195;28;20285;-78
2022/03/08 09:30:44;;;;;;;17.42;10.25;;;8.70;71.00;;;;;;5045457;28;20437;-78
2022/03/08 09:33:13;;;;;;;16.27;10.40;;;8.80;69.80;;;;;;5050521;28;20187;-78
2022/03/08 09:35:45;;;;;;;19.43;11.60;;;8.80;67.60;;;;;;5047528;28;20413;-78
2022/03/08 09:38:14;;;;;;;20.17;11.27;;;8.90;67.90;;;;;;5046424;28;20286;-77
2022/03/08 09:40:44;;;;;;;18.33;10.60;;;9.00;68.10;;;;;;5046427;28;20201;-78
2022/03/08 09:43:12;;;;;;;17.60;11.17;;;8.90;66.90;;;;;;5045641;28;20255;-79
2022/03/08 09:45:42;;;;;;;17.83;10.90;;;9.00;67.10;;;;;;5048706;28;20203;-81
2022/03/08 09:48:10;;;;;;;17.03;10.67;;;9.00;66.10;;;;;;5059674;28;20858;-80
2022/03/08 09:50:40;;;;;;;22.33;12.30;;;9.10;66.60;;;;;;5057936;28;20289;-81
2022/03/08 09:53:11;;;;;;;20.00;12.20;;;9.20;67.70;;;;;;5054496;28;20198;-84
2022/03/08 09:55:40;;;;;;;20.63;12.40;;;9.10;64.90;;;;;;5051743;28;20194;-80
2022/03/08 09:58:10;;;;;;;18.87;11.23;;;9.10;66.20;;;;;;5053430;28;20218;-80
2022/03/08 10:00:38;;;;;;;18.73;10.93;;;9.20;66.60;;;;;;5057474;28;20198;-81
2022/03/08 10:03:11;;;;;;;20.50;11.50;;;9.30;65.70;;;;;;5052063;28;20227;-79
2022/03/08 10:05:55;;;;;;;18.50;10.27;;;9.30;65.30;;;;;;5055899;28;20202;-80
2022/03/08 10:08:34;;;;;;;17.50;10.43;;;9.40;64.70;;;;;;5053103;28;20199;-82
2022/03/08 10:11:07;;;;;;;18.47;10.53;;;9.40;64.40;;;;;;5051683;28;20194;-81
2022/03/08 10:13:50;;;;;;;18.37;10.80;;;9.40;64.40;;;;;;5055287;28;20190;-80
2022/03/08 10:16:23;;;;;;;19.53;10.87;;;9.50;64.70;;;;;;5052517;28;20206;-79
2022/03/08 10:18:56;;;;;;;17.73;10.50;;;9.60;64.80;;;;;;5051813;28;20182;-77
2022/03/08 10:21:32;;;;;;;16.63;10.37;;;9.70;63.80;;;;;;5046598;28;20198;-79
2022/03/08 10:24:04;;;;;;;18.53;10.80;;;9.70;62.40;;;;;;5048794;28;20305;-79
2022/03/08 10:26:42;;;;;;;18.33;10.67;;;9.80;63.10;;;;;;5045274;28;20203;-78
2022/03/08 10:29:12;;;;;;;16.43;10.63;;;9.80;63.10;;;;;;5046920;28;20929;-77
2022/03/08 10:31:41;;;;;;;18.43;11.20;;;9.80;62.90;;;;;;5046519;28;20253;-77
2022/03/08 10:34:15;;;;;;;18.00;10.33;;;9.90;63.00;;;;;;5051575;28;20199;-78
2022/03/08 10:37:02;;;;;;;15.63;9.73;;;9.90;61.60;;;;;;5047149;28;20199;-77
2022/03/08 10:39:30;;;;;;;19.70;11.43;;;10.00;61.80;;;;;;5044607;28;20191;-79
2022/03/08 10:42:00;;;;;;;16.23;10.37;;;10.00;61.70;;;;;;5045004;28;20481;-78
2022/03/08 10:44:35;;;;;;;15.50;9.63;;;10.10;61.90;;;;;;5044504;28;20222;-78
2022/03/08 10:47:07;;;;;;;18.03;10.63;;;10.20;61.90;;;;;;5044782;28;20217;-79
2022/03/08 10:49:53;;;;;;;15.50;9.43;;;10.30;61.90;;;;;;5045388;28;20201;-76
2022/03/08 10:52:29;;;;;;;15.00;9.47;;;10.40;62.30;;;;;;5044342;28;20844;-76
2022/03/08 10:55:09;;;;;;;18.07;10.30;;;10.50;61.90;;;;;;5045769;28;20191;-78
2022/03/08 10:57:40;;;;;;;18.80;10.90;;;10.60;61.30;;;;;;5044528;28;20203;-77
2022/03/08 11:00:20;;;;;;;16.90;10.97;;;10.60;60.90;;;;;;5044774;28;20227;-77
2022/03/08 11:02:51;;;;;;;19.07;11.03;;;10.70;61.30;;;;;;5045569;28;20201;-76
2022/03/08 11:05:21;;;;;;;19.13;10.97;;;10.70;62.20;;;;;;5044357;28;20211;-77
2022/03/08 11:07:50;;;;;;;16.87;10.53;;;10.80;61.10;;;;;;5044588;28;20199;-76
2022/03/08 11:10:20;;;;;;;17.70;10.80;;;10.80;59.80;;;;;;5044795;28;20195;-76
2022/03/08 11:12:48;;;;;;;17.60;9.93;;;10.90;59.90;;;;;;5044874;28;20214;-76
2022/03/08 11:15:20;;;;;;;15.10;9.10;;;10.90;59.20;;;;;;5044317;28;20607;-76
2022/03/08 11:17:53;;;;;;;18.27;10.83;;;10.90;59.50;;;;;;5043816;28;20256;-76
2022/03/08 11:20:23;;;;;;;18.83;10.30;;;11.00;59.60;;;;;;5045863;28;20199;-76
2022/03/08 11:22:53;;;;;;;17.30;10.70;;;11.00;58.70;;;;;;5045169;28;20205;-76
2022/03/08 11:25:23;;;;;;;13.63;9.03;;;11.10;58.50;;;;;;5043946;28;20211;-77
2022/03/08 11:28:13;;;;;;;18.10;9.77;;;11.20;58.60;;;;;;5043909;28;20377;-76
2022/03/08 11:30:46;;;;;;;17.73;10.00;;;11.20;57.70;;;;;;5046056;28;20217;-76
2022/03/08 11:33:24;;;;;;;16.07;9.80;;;11.30;57.80;;;;;;5043977;28;20600;-77
2022/03/08 11:35:58;;;;;;;16.03;10.13;;;11.30;57.80;;;;;;5044012;28;20197;-76
2022/03/08 11:38:27;;;;;;;15.50;9.33;;;11.40;57.80;;;;;;5044167;28;20205;-76
2022/03/08 11:40:58;;;;;;;17.47;10.00;;;11.40;57.50;;;;;;5044882;28;20436;-76
2022/03/08 11:43:38;;;;;;;14.33;9.07;;;11.50;56.40;;;;;;5044185;28;20206;-76
2022/03/08 11:46:15;;;;;;;18.67;8.93;;;11.50;56.60;;;;;;5043606;28;20198;-77
2022/03/08 11:48:52;;;;;;;14.90;9.67;;;11.50;56.30;;;;;;5044004;28;20214;-76
2022/03/08 11:51:20;;;;;;;16.47;9.50;;;11.50;55.60;;;;;;5044511;28;20201;-76
2022/03/08 11:53:48;;;;;;;16.40;9.90;;;11.60;55.60;;;;;;5044840;28;20533;-76
2022/03/08 11:56:17;;;;;;;15.80;9.63;;;11.60;55.80;;;;;;5042148;28;20788;-77
2022/03/08 11:58:51;;;;;;;14.63;9.20;;;11.70;55.90;;;;;;5041579;28;20195;-77
2022/03/08 12:01:26;;;;;;;14.57;9.30;;;11.80;55.70;;;;;;5042693;28;20234;-76
2022/03/08 12:03:57;;;;;;;15.17;9.33;;;11.80;56.00;;;;;;5041543;28;20954;-78
2022/03/08 12:06:33;;;;;;;16.57;9.53;;;11.80;55.30;;;;;;5042075;28;20191;-76
2022/03/08 12:09:07;;;;;;;15.90;9.67;;;11.90;54.00;;;;;;5045316;28;20234;-76
2022/03/08 12:11:38;;;;;;;17.40;9.00;;;11.80;54.30;;;;;;5042741;28;20748;-76
2022/03/08 12:14:23;;;;;;;13.07;9.07;;;11.80;54.90;;;;;;5043159;28;20195;-76
2022/03/08 12:17:06;;;;;;;16.03;9.33;;;11.90;55.00;;;;;;5041492;28;20226;-77
2022/03/08 12:19:36;;;;;;;16.37;9.17;;;12.00;55.50;;;;;;5044752;28;20197;-77
2022/03/08 12:22:11;;;;;;;14.60;9.27;;;12.00;55.50;;;;;;5042133;28;20884;-77
2022/03/08 12:24:42;;;;;;;14.70;8.87;;;12.10;54.60;;;;;;5040680;28;20199;-77
2022/03/08 12:27:12;;;;;;;14.93;9.40;;;12.10;54.60;;;;;;5042866;28;20198;-77
2022/03/08 12:30:01;;;;;;;17.08;10.75;;;12.10;54.40;;;;;;5041145;28;21432;-76
2022/03/08 12:32:43;;;;;;;15.30;9.00;;;12.10;54.00;;;;;;5040411;28;20220;-77
2022/03/08 12:35:15;;;;;;;13.87;8.50;;;12.10;54.20;;;;;;5041793;28;20200;-77
2022/03/08 12:37:50;;;;;;;13.97;8.47;;;12.20;54.70;;;;;;5042114;28;20199;-76
2022/03/08 12:40:27;;;;;;;15.37;8.90;;;12.20;53.80;;;;;;5041609;28;20191;-76
2022/03/08 12:42:58;;;;;;;14.77;9.10;;;12.20;54.20;;;;;;5042453;28;20198;-76
2022/03/08 12:45:30;;;;;;;13.87;8.50;;;12.30;53.60;;;;;;5040883;28;20225;-77
2022/03/08 12:48:01;;;;;;;14.67;8.83;;;12.30;53.80;;;;;;5041583;28;20192;-77
2022/03/08 12:50:34;;;;;;;13.07;8.33;;;12.40;53.60;;;;;;5042287;28;20207;-77
2022/03/08 12:53:04;;;;;;;15.97;9.10;;;12.40;53.60;;;;;;5042980;28;20755;-76
2022/03/08 12:55:34;;;;;;;18.00;9.53;;;12.50;53.50;;;;;;5041168;28;20237;-77
2022/03/08 12:58:06;;;;;;;21.47;9.90;;;12.50;53.40;;;;;;5041062;28;20198;-76
2022/03/08 13:00:39;;;;;;;17.13;9.03;;;12.50;53.10;;;;;;5041300;28;20199;-76
2022/03/08 13:03:12;;;;;;;18.23;10.57;;;12.50;53.00;;;;;;5042160;28;20254;-75
2022/03/08 13:05:42;;;;;;;18.33;10.70;;;12.50;53.10;;;;;;5041804;28;20240;-76
2022/03/08 13:08:12;;;;;;;18.90;10.67;;;12.50;52.60;;;;;;5041565;28;20262;-76